createdAt,value
2018-09-28T00:02:20.967Z,15.65
2018-09-28T00:04:49.752Z,17.00
2018-09-28T00:07:18.325Z,15.50
2018-09-28T00:09:46.971Z,16.82
2018-09-28T00:12:15.531Z,15.95
2018-09-28T00:14:44.090Z,16.52
2018-09-28T00:17:12.687Z,16.25
2018-09-28T00:19:41.292Z,16.70
2018-09-28T00:22:09.929Z,17.27
2018-09-28T00:24:38.600Z,17.25
2018-09-28T00:27:07.137Z,16.20
2018-09-28T00:29:35.771Z,17.12
2018-09-28T00:32:04.400Z,17.57
2018-09-28T00:34:33.051Z,18.37
2018-09-28T00:37:01.677Z,17.82
2018-09-28T00:39:30.278Z,18.32
2018-09-28T00:41:58.975Z,18.07
2018-09-28T00:44:27.606Z,17.40
2018-09-28T00:46:56.129Z,18.05
2018-09-28T00:49:24.839Z,18.45
2018-09-28T00:51:53.394Z,18.12
2018-09-28T00:54:21.977Z,18.23
2018-09-28T00:56:50.573Z,19.15
2018-09-28T00:59:19.307Z,17.50
2018-09-28T01:01:48.027Z,19.20
2018-09-28T01:04:16.664Z,17.90
2018-09-28T01:06:45.315Z,18.45
2018-09-28T01:09:15.147Z,19.45
2018-09-28T01:11:43.750Z,19.48
2018-09-28T01:14:12.419Z,19.17
2018-09-28T01:16:41.139Z,21.80
2018-09-28T01:19:09.776Z,18.95
2018-09-28T01:21:38.504Z,19.75
2018-09-28T01:24:06.728Z,20.70
2018-09-28T01:26:35.309Z,18.80
2018-09-28T01:29:04.007Z,20.52
2018-09-28T01:31:32.617Z,20.00
2018-09-28T01:34:01.260Z,20.08
2018-09-28T01:36:29.918Z,21.37
2018-09-28T01:38:58.600Z,21.73
2018-09-28T01:41:27.211Z,21.30
2018-09-28T01:43:55.897Z,22.93
2018-09-28T01:46:24.467Z,23.85
2018-09-28T01:48:53.021Z,22.87
2018-09-28T01:51:21.572Z,22.48
2018-09-28T01:53:50.213Z,22.85
2018-09-28T01:56:18.823Z,22.87
2018-09-28T01:58:47.410Z,22.27
2018-09-28T02:01:15.970Z,22.07
2018-09-28T02:03:44.521Z,22.40
2018-09-28T02:06:13.126Z,21.80
2018-09-28T02:08:43.381Z,22.95
2018-09-28T02:11:12.005Z,21.40
2018-09-28T02:13:40.617Z,21.97
2018-09-28T02:16:09.252Z,21.60
2018-09-28T02:18:37.832Z,22.98
2018-09-28T02:21:06.456Z,23.12
2018-09-28T02:23:35.068Z,22.62
2018-09-28T02:26:03.641Z,25.25
2018-09-28T02:28:32.197Z,23.42
2018-09-28T02:31:00.795Z,23.02
2018-09-28T02:33:29.369Z,23.65
2018-09-28T02:35:57.936Z,23.40
2018-09-28T02:38:27.181Z,22.60
2018-09-28T02:40:55.805Z,24.30
2018-09-28T02:43:24.436Z,23.42
2018-09-28T02:45:53.089Z,23.20
2018-09-28T02:48:22.428Z,23.05
2018-09-28T02:50:51.067Z,23.27
2018-09-28T02:53:19.790Z,23.70
2018-09-28T02:55:49.443Z,24.55
2018-09-28T02:58:18.913Z,23.42
2018-09-28T03:00:48.289Z,23.22
2018-09-28T03:03:16.996Z,24.18
2018-09-28T03:05:45.580Z,23.73
2018-09-28T03:08:14.794Z,23.85
2018-09-28T03:10:43.454Z,23.65
2018-09-28T03:13:12.005Z,23.90
2018-09-28T03:15:40.594Z,25.20
2018-09-28T03:18:13.011Z,25.35
2018-09-28T03:20:41.621Z,27.25
2018-09-28T03:23:10.170Z,25.65
2018-09-28T03:25:39.402Z,26.00
2018-09-28T03:28:08.201Z,26.42
2018-09-28T03:30:37.821Z,25.48
2018-09-28T03:33:06.446Z,27.52
2018-09-28T03:35:35.077Z,27.48
2018-09-28T03:38:04.551Z,26.55
2018-09-28T03:40:33.154Z,27.45
2018-09-28T03:43:01.721Z,25.48
2018-09-28T03:45:30.373Z,27.10
2018-09-28T03:47:58.974Z,27.75
2018-09-28T03:50:28.527Z,28.50
2018-09-28T03:52:57.148Z,27.55
2018-09-28T03:55:25.737Z,27.95
2018-09-28T03:57:54.340Z,29.15
2018-09-28T04:00:22.933Z,27.73
2018-09-28T04:02:51.588Z,28.70
2018-09-28T04:05:20.208Z,28.55
2018-09-28T04:07:49.213Z,29.82
2018-09-28T04:10:17.788Z,29.20
2018-09-28T04:12:46.361Z,29.15
2018-09-28T04:15:15.038Z,28.17
2018-09-28T04:17:43.643Z,30.80
2018-09-28T04:20:12.260Z,30.27
2018-09-28T04:22:40.832Z,31.05
2018-09-28T04:25:09.544Z,30.48
2018-09-28T04:27:38.137Z,31.95
2018-09-28T04:30:07.037Z,30.90
2018-09-28T04:32:35.592Z,33.02
2018-09-28T04:35:04.196Z,33.15
2018-09-28T04:37:32.818Z,34.55
2018-09-28T04:40:01.397Z,35.25
2018-09-28T04:42:30.968Z,33.40
2018-09-28T04:44:59.597Z,35.58
2018-09-28T04:47:28.149Z,35.92
2018-09-28T04:49:56.760Z,35.65
2018-09-28T04:52:25.344Z,36.25
2018-09-28T04:54:53.988Z,38.45
2018-09-28T04:57:22.595Z,36.58
2018-09-28T04:59:51.319Z,36.70
2018-09-28T05:02:19.909Z,37.55
2018-09-28T05:04:48.513Z,37.13
2018-09-28T05:07:17.144Z,37.28
2018-09-28T05:09:45.776Z,38.08
2018-09-28T05:12:14.371Z,38.73
2018-09-28T05:14:42.973Z,38.28
2018-09-28T05:17:11.603Z,36.68
2018-09-28T05:19:40.238Z,37.15
2018-09-28T05:22:08.796Z,38.48
2018-09-28T05:24:37.398Z,36.65
2018-09-28T05:27:05.969Z,37.55
2018-09-28T05:29:34.541Z,36.70
2018-09-28T05:32:03.783Z,35.03
2018-09-28T05:34:32.411Z,35.68
2018-09-28T05:37:01.144Z,35.73
2018-09-28T05:39:29.891Z,34.53
2018-09-28T05:41:58.500Z,32.00
2018-09-28T05:44:27.122Z,31.87
2018-09-28T05:46:55.733Z,30.12
2018-09-28T05:49:24.298Z,31.50
2018-09-28T05:51:53.613Z,30.48
2018-09-28T05:54:22.232Z,30.32
2018-09-28T05:56:50.917Z,28.35
2018-09-28T06:00:27.550Z,26.20
2018-09-28T06:03:01.470Z,23.77
2018-09-28T06:05:37.583Z,22.85
2018-09-28T06:08:06.043Z,21.77
2018-09-28T06:10:35.498Z,20.90
2018-09-28T06:13:04.073Z,19.42
2018-09-28T06:15:32.791Z,19.17
2018-09-28T06:18:01.459Z,16.80
2018-09-28T06:20:30.011Z,15.83
2018-09-28T06:22:58.561Z,16.45
2018-09-28T06:25:27.128Z,14.00
2018-09-28T06:27:55.724Z,14.25
2018-09-28T06:30:24.864Z,13.90
2018-09-28T06:32:53.502Z,11.50
2018-09-28T06:35:22.099Z,11.80
2018-09-28T06:37:50.901Z,10.43
2018-09-28T06:40:19.436Z,7.47
2018-09-28T06:42:48.106Z,4.67
2018-09-28T06:45:16.660Z,4.20
2018-09-28T06:47:45.307Z,3.45
2018-09-28T06:50:13.952Z,3.35
2018-09-28T06:52:42.583Z,3.30
2018-09-28T06:55:11.191Z,3.05
2018-09-28T06:57:39.828Z,2.70
2018-09-28T07:00:09.250Z,3.85
2018-09-28T07:02:37.886Z,2.80
2018-09-28T07:05:06.538Z,3.02
2018-09-28T07:07:35.159Z,3.22
2018-09-28T07:10:03.849Z,2.50
2018-09-28T07:12:32.456Z,2.17
2018-09-28T07:15:01.013Z,2.35
2018-09-28T07:17:29.652Z,2.05
2018-09-28T07:19:58.246Z,2.17
2018-09-28T07:22:26.857Z,2.05
2018-09-28T07:24:55.580Z,2.40
2018-09-28T07:27:24.166Z,2.33
2018-09-28T07:29:52.871Z,2.77
2018-09-28T07:32:21.406Z,2.27
2018-09-28T07:34:50.321Z,2.37
2018-09-28T07:37:18.956Z,2.67
2018-09-28T07:39:47.453Z,2.70
2018-09-28T07:42:16.149Z,2.80
2018-09-28T07:44:44.693Z,2.83
2018-09-28T07:47:13.285Z,2.55
2018-09-28T07:49:41.858Z,2.20
2018-09-28T07:52:10.057Z,2.55
2018-09-28T07:54:38.666Z,2.80
2018-09-28T07:57:07.270Z,2.70
2018-09-28T07:59:35.857Z,2.60
2018-09-28T08:02:04.436Z,2.22
2018-09-28T08:04:33.000Z,2.25
2018-09-28T08:07:01.579Z,2.98
2018-09-28T08:09:30.224Z,2.02
2018-09-28T08:11:58.818Z,3.00
2018-09-28T08:14:27.442Z,2.35
2018-09-28T08:16:56.020Z,2.80
2018-09-28T08:19:24.619Z,2.33
2018-09-28T08:21:53.232Z,2.05
2018-09-28T08:24:21.821Z,2.62
2018-09-28T08:26:50.401Z,2.87
2018-09-28T08:29:19.013Z,2.47
2018-09-28T08:31:47.559Z,3.02
2018-09-28T08:34:16.138Z,2.75
2018-09-28T08:36:44.805Z,2.77
2018-09-28T08:39:13.363Z,2.70
2018-09-28T08:41:42.010Z,2.70
2018-09-28T08:44:10.582Z,2.92
2018-09-28T08:46:39.182Z,3.08
2018-09-28T08:49:07.801Z,2.62
2018-09-28T08:51:36.409Z,3.77
2018-09-28T08:54:04.983Z,4.35
2018-09-28T08:56:33.578Z,3.47
2018-09-28T08:59:01.810Z,4.50
2018-09-28T09:01:30.376Z,3.50
2018-09-28T09:03:58.957Z,3.10
2018-09-28T09:06:27.641Z,2.87
2018-09-28T09:08:56.252Z,3.62
2018-09-28T09:11:24.835Z,3.25
2018-09-28T09:13:53.443Z,3.17
2018-09-28T09:16:22.029Z,3.17
2018-09-28T09:18:50.640Z,3.60
2018-09-28T09:21:19.412Z,2.85
2018-09-28T09:23:48.041Z,2.77
2018-09-28T09:26:16.648Z,2.90
2018-09-28T09:28:45.265Z,3.25
2018-09-28T09:31:13.816Z,2.80
2018-09-28T09:33:42.421Z,2.70
2018-09-28T09:36:11.040Z,2.47
2018-09-28T09:38:42.603Z,2.90
2018-09-28T09:41:11.416Z,2.60
2018-09-28T09:43:39.998Z,2.37
2018-09-28T09:46:08.618Z,2.37
2018-09-28T09:48:37.227Z,2.62
2018-09-28T09:51:05.810Z,3.08
2018-09-28T09:53:34.396Z,2.65
2018-09-28T09:56:02.970Z,2.92
2018-09-28T09:58:31.537Z,2.52
2018-09-28T10:01:05.414Z,2.50
2018-09-28T10:03:40.062Z,2.60
2018-09-28T10:06:10.438Z,2.80
2018-09-28T10:08:43.916Z,2.95
2018-09-28T10:11:12.451Z,2.60
2018-09-28T10:13:40.957Z,3.00
2018-09-28T10:16:09.795Z,2.87
2018-09-28T10:18:39.214Z,2.37
2018-09-28T10:21:07.832Z,2.33
2018-09-28T10:23:36.397Z,2.12
2018-09-28T10:26:04.928Z,2.10
2018-09-28T10:28:33.432Z,2.20
2018-09-28T10:31:02.007Z,2.20
2018-09-28T10:33:30.629Z,1.92
2018-09-28T10:35:59.116Z,2.62
2018-09-28T10:38:27.651Z,2.50
2018-09-28T10:40:56.287Z,2.00
2018-09-28T10:43:25.007Z,2.42
2018-09-28T10:45:53.594Z,2.33
2018-09-28T10:48:22.132Z,2.10
2018-09-28T10:50:50.637Z,2.00
2018-09-28T10:53:19.792Z,2.27
2018-09-28T10:55:48.330Z,2.33
2018-09-28T10:58:16.891Z,2.33
2018-09-28T11:00:45.470Z,2.30
2018-09-28T11:03:14.037Z,2.58
2018-09-28T11:05:42.552Z,2.35
2018-09-28T11:08:11.068Z,2.55
2018-09-28T11:10:42.792Z,2.42
2018-09-28T11:13:14.433Z,2.02
2018-09-28T11:15:43.001Z,2.58
2018-09-28T11:18:11.508Z,2.55
2018-09-28T11:20:40.144Z,2.12
2018-09-28T11:23:08.690Z,2.40
2018-09-28T11:25:37.258Z,1.90
2018-09-28T11:28:08.162Z,2.62
2018-09-28T11:30:36.700Z,2.42
2018-09-28T11:33:05.277Z,2.20
2018-09-28T11:35:33.811Z,2.65
2018-09-28T11:38:02.304Z,2.67
2018-09-28T11:40:30.978Z,2.55
2018-09-28T11:42:59.541Z,2.58
2018-09-28T11:45:29.265Z,1.95
2018-09-28T11:47:57.678Z,2.05
2018-09-28T11:50:26.277Z,2.20
2018-09-28T11:52:54.823Z,1.90
2018-09-28T11:55:23.432Z,2.05
2018-09-28T11:57:51.992Z,2.20
2018-09-28T12:00:20.488Z,2.00
2018-09-28T12:02:48.991Z,1.85
2018-09-28T12:05:18.086Z,1.90
2018-09-28T12:07:46.629Z,1.85
2018-09-28T12:10:15.147Z,2.10
2018-09-28T12:12:43.779Z,1.77
2018-09-28T12:15:12.333Z,1.70
2018-09-28T12:17:40.850Z,2.10
2018-09-28T12:20:09.834Z,2.35
2018-09-28T12:22:38.404Z,1.98
2018-09-28T12:25:06.971Z,2.10
2018-09-28T12:27:35.541Z,2.17
2018-09-28T12:30:04.088Z,1.90
2018-09-28T12:32:32.733Z,2.33
2018-09-28T12:35:01.282Z,2.17
2018-09-28T12:37:29.801Z,2.25
2018-09-28T12:39:58.371Z,1.55
2018-09-28T12:42:27.052Z,2.22
2018-09-28T12:44:56.171Z,1.62
2018-09-28T12:47:24.657Z,1.67
2018-09-28T12:49:53.250Z,2.47
2018-09-28T12:52:21.805Z,1.82
2018-09-28T12:54:50.396Z,2.02
2018-09-28T12:57:18.906Z,2.25
2018-09-28T12:59:47.403Z,2.20
2018-09-28T13:02:15.967Z,2.40
2018-09-28T13:04:44.506Z,2.10
2018-09-28T13:07:13.062Z,1.80
2018-09-28T13:09:41.586Z,2.40
2018-09-28T13:12:10.203Z,2.20
2018-09-28T13:14:38.806Z,2.45
2018-09-28T13:17:07.272Z,1.92
2018-09-28T13:19:35.772Z,1.60
2018-09-28T13:22:04.348Z,1.87
2018-09-28T13:24:32.999Z,2.12
2018-09-28T13:27:01.518Z,1.77
2018-09-28T13:29:29.714Z,1.52
2018-09-28T13:31:57.898Z,1.60
2018-09-28T13:34:26.482Z,2.20
2018-09-28T13:36:55.018Z,2.02
2018-09-28T13:39:23.621Z,1.72
2018-09-28T13:41:52.166Z,1.90
2018-09-28T13:44:20.764Z,1.90
2018-09-28T13:46:49.342Z,1.87
2018-09-28T13:49:17.862Z,1.70
2018-09-28T13:51:46.447Z,2.22
2018-09-28T13:54:15.008Z,1.70
2018-09-28T13:56:43.617Z,1.65
2018-09-28T13:59:12.137Z,1.75
2018-09-28T14:01:40.683Z,1.45
2018-09-28T14:04:09.259Z,1.80
2018-09-28T14:06:37.942Z,1.87
2018-09-28T14:09:08.365Z,1.75
2018-09-28T14:11:36.992Z,2.00
2018-09-28T14:14:05.558Z,2.05
2018-09-28T14:16:34.142Z,2.33
2018-09-28T14:19:02.677Z,2.80
2018-09-28T14:21:31.205Z,2.77
2018-09-28T14:23:59.776Z,2.95
2018-09-28T14:26:28.934Z,3.20
2018-09-28T14:28:57.534Z,3.20
2018-09-28T14:31:26.176Z,3.42
2018-09-28T14:33:54.711Z,3.83
2018-09-28T14:36:23.861Z,4.05
2018-09-28T14:38:52.370Z,3.33
2018-09-28T14:41:21.744Z,3.58
2018-09-28T14:43:50.352Z,4.03
2018-09-28T14:46:19.038Z,4.20
2018-09-28T14:48:47.622Z,4.72
2018-09-28T14:51:16.082Z,5.20
2018-09-28T14:53:44.580Z,3.47
2018-09-28T14:56:13.168Z,2.37
2018-09-28T14:58:41.709Z,2.10
2018-09-28T15:01:10.380Z,2.20
2018-09-28T15:03:38.795Z,2.20
2018-09-28T15:06:07.534Z,2.92
2018-09-28T15:08:36.108Z,2.45
2018-09-28T15:11:04.672Z,3.10
2018-09-28T15:13:33.250Z,3.22
2018-09-28T15:16:01.783Z,3.15
2018-09-28T15:18:30.426Z,2.90
2018-09-28T15:20:59.783Z,2.17
2018-09-28T15:23:28.421Z,2.60
2018-09-28T15:25:57.104Z,2.00
2018-09-28T15:28:25.702Z,2.10
2018-09-28T15:30:54.974Z,2.00
2018-09-28T15:33:23.501Z,1.85
2018-09-28T15:35:52.012Z,2.00
2018-09-28T15:38:20.523Z,2.00
2018-09-28T15:40:49.095Z,1.95
2018-09-28T15:43:17.622Z,1.62
2018-09-28T15:45:46.176Z,1.70
2018-09-28T15:48:15.597Z,1.65
2018-09-28T15:50:44.128Z,1.75
2018-09-28T15:53:12.616Z,1.60
2018-09-28T15:55:41.218Z,1.75
2018-09-28T15:58:09.759Z,1.55
2018-09-28T16:00:39.077Z,2.10
2018-09-28T16:03:07.640Z,1.55
2018-09-28T16:05:36.198Z,1.42
2018-09-28T16:08:04.867Z,1.85
2018-09-28T16:10:33.444Z,1.50
2018-09-28T16:13:01.997Z,1.60
2018-09-28T16:15:30.534Z,1.47
2018-09-28T16:17:59.200Z,1.60
2018-09-28T16:20:27.793Z,1.70
2018-09-28T16:22:56.353Z,1.85
2018-09-28T16:25:24.885Z,1.82
2018-09-28T16:27:53.772Z,1.60
2018-09-28T16:30:22.411Z,1.27
2018-09-28T16:32:51.210Z,1.90
2018-09-28T16:35:19.404Z,1.72
2018-09-28T16:37:47.958Z,1.82
2018-09-28T16:40:16.540Z,1.62
2018-09-28T16:42:45.060Z,1.50
2018-09-28T16:45:13.609Z,1.62
2018-09-28T16:47:43.095Z,1.40
2018-09-28T16:50:11.596Z,1.50
2018-09-28T16:52:40.134Z,1.70
2018-09-28T16:55:08.687Z,1.90
2018-09-28T16:57:37.237Z,1.52
2018-09-28T17:00:05.810Z,1.35
2018-09-28T17:02:34.353Z,1.40
2018-09-28T17:05:02.936Z,1.70
2018-09-28T17:07:32.469Z,1.72
2018-09-28T17:10:01.128Z,1.15
2018-09-28T17:12:29.671Z,1.37
2018-09-28T17:14:58.194Z,1.72
2018-09-28T17:17:26.726Z,1.95
2018-09-28T17:19:55.230Z,1.50
2018-09-28T17:22:23.818Z,1.40
2018-09-28T17:24:52.413Z,1.92
2018-09-28T17:27:20.961Z,1.70
2018-09-28T17:29:49.559Z,1.47
2018-09-28T17:32:17.738Z,1.92
2018-09-28T17:34:46.692Z,1.60
2018-09-28T17:37:15.153Z,1.90
2018-09-28T17:39:43.754Z,1.67
2018-09-28T17:42:12.361Z,1.90
2018-09-28T17:44:40.934Z,1.75
2018-09-28T17:47:09.503Z,1.47
2018-09-28T17:49:38.755Z,2.42
2018-09-28T17:52:07.539Z,1.75
2018-09-28T17:54:37.237Z,1.90
2018-09-28T17:57:05.756Z,2.12
2018-09-28T17:59:34.333Z,1.52
2018-09-28T18:02:02.928Z,1.70
2018-09-28T18:04:31.539Z,1.60
2018-09-28T18:07:00.084Z,1.50
2018-09-28T18:09:28.670Z,1.80
2018-09-28T18:11:57.251Z,1.57
2018-09-28T18:14:25.822Z,1.90
2018-09-28T18:16:54.362Z,1.80
2018-09-28T18:19:23.537Z,1.80
2018-09-28T18:21:52.045Z,1.90
2018-09-28T18:24:20.556Z,3.00
2018-09-28T18:26:49.038Z,2.75
2018-09-28T18:29:17.523Z,2.25
2018-09-28T18:31:45.705Z,2.30
2018-09-28T18:34:14.269Z,2.22
2018-09-28T18:36:42.854Z,2.02
2018-09-28T18:39:11.370Z,1.95
2018-09-28T18:41:39.931Z,2.45
2018-09-28T18:44:08.518Z,2.27
2018-09-28T18:46:37.057Z,2.45
2018-09-28T18:49:05.578Z,2.80
2018-09-28T18:51:34.131Z,2.55
2018-09-28T18:54:02.768Z,2.80
2018-09-28T18:56:31.323Z,2.75
2018-09-28T18:58:59.813Z,2.40
2018-09-28T19:01:28.338Z,2.72
2018-09-28T19:03:56.836Z,2.72
2018-09-28T19:06:25.360Z,2.42
2018-09-28T19:08:53.836Z,3.12
2018-09-28T19:11:22.354Z,2.25
2018-09-28T19:13:50.905Z,2.52
2018-09-28T19:16:19.482Z,2.72
2018-09-28T19:18:48.010Z,2.70
2018-09-28T19:21:16.691Z,2.60
2018-09-28T19:23:45.296Z,2.30
2018-09-28T19:26:13.886Z,2.58
2018-09-28T19:28:43.038Z,2.83
2018-09-28T19:31:11.589Z,2.92
2018-09-28T19:33:40.138Z,2.65
2018-09-28T19:36:08.700Z,2.90
2018-09-28T19:38:37.249Z,3.00
2018-09-28T19:41:05.797Z,3.15
2018-09-28T19:43:34.332Z,2.90
2018-09-28T19:46:02.899Z,2.62
2018-09-28T19:48:31.491Z,3.30
2018-09-28T19:51:00.004Z,2.67
2018-09-28T19:53:28.516Z,2.47
2018-09-28T19:55:57.200Z,2.65
2018-09-28T19:58:25.758Z,2.67
2018-09-28T20:00:54.252Z,2.25
2018-09-28T20:03:22.882Z,3.08
2018-09-28T20:05:51.493Z,2.55
2018-09-28T20:08:20.009Z,2.87
2018-09-28T20:10:48.509Z,3.05
2018-09-28T20:13:17.076Z,2.80
2018-09-28T20:15:45.611Z,2.40
2018-09-28T20:18:14.103Z,2.52
2018-09-28T20:20:42.606Z,2.72
2018-09-28T20:23:11.155Z,2.95
2018-09-28T20:25:39.702Z,3.20
2018-09-28T20:28:08.204Z,2.52
2018-09-28T20:30:36.710Z,3.02
2018-09-28T20:33:05.255Z,2.83
2018-09-28T20:35:33.761Z,2.60
2018-09-28T20:38:02.332Z,2.72
2018-09-28T20:40:30.788Z,2.62
2018-09-28T20:42:59.307Z,2.95
2018-09-28T20:45:27.815Z,3.30
2018-09-28T20:47:56.328Z,4.25
2018-09-28T20:50:24.857Z,4.10
2018-09-28T20:52:53.412Z,3.92
2018-09-28T20:55:21.996Z,4.22
2018-09-28T20:57:50.498Z,3.98
2018-09-28T21:00:19.068Z,4.20
2018-09-28T21:02:47.653Z,4.22
2018-09-28T21:05:16.187Z,3.98
2018-09-28T21:07:44.756Z,4.53
2018-09-28T21:10:13.318Z,4.33
2018-09-28T21:12:41.865Z,4.03
2018-09-28T21:15:10.393Z,3.77
2018-09-28T21:17:38.922Z,4.30
2018-09-28T21:20:07.435Z,4.15
2018-09-28T21:22:35.922Z,4.42
2018-09-28T21:25:04.600Z,4.42
2018-09-28T21:27:33.094Z,4.42
2018-09-28T21:30:01.714Z,4.22
2018-09-28T21:32:30.259Z,3.47
2018-09-28T21:34:58.823Z,4.53
2018-09-28T21:37:27.353Z,4.80
2018-09-28T21:39:55.919Z,5.45
2018-09-28T21:42:24.487Z,4.50
2018-09-28T21:44:53.035Z,4.42
2018-09-28T21:47:21.583Z,4.25
2018-09-28T21:49:50.163Z,4.08
2018-09-28T21:52:18.678Z,5.00
2018-09-28T21:54:47.222Z,5.67
2018-09-28T21:57:15.742Z,4.45
2018-09-28T21:59:44.254Z,4.72
2018-09-28T22:02:12.750Z,4.78
2018-09-28T22:04:41.306Z,5.22
2018-09-28T22:07:09.858Z,5.15
2018-09-28T22:09:38.339Z,5.28
2018-09-28T22:12:07.439Z,5.00
2018-09-28T22:14:35.936Z,5.67
2018-09-28T22:17:04.482Z,5.22
2018-09-28T22:19:33.022Z,5.80
2018-09-28T22:22:01.558Z,5.40
2018-09-28T22:24:30.183Z,5.12
2018-09-28T22:26:58.714Z,5.08
2018-09-28T22:29:27.276Z,4.85
2018-09-28T22:31:55.822Z,4.62
2018-09-28T22:34:24.068Z,5.37
2018-09-28T22:36:52.515Z,5.50
2018-09-28T22:39:21.107Z,5.43
2018-09-28T22:41:49.637Z,4.78
2018-09-28T22:44:18.154Z,5.78
2018-09-28T22:46:46.714Z,5.12
2018-09-28T22:49:15.917Z,5.30
2018-09-28T22:51:44.979Z,5.10
2018-09-28T22:54:13.577Z,5.65
2018-09-28T22:56:42.179Z,5.87
2018-09-28T22:59:10.720Z,5.67
2018-09-28T23:01:39.882Z,6.10
2018-09-28T23:04:09.078Z,5.37
2018-09-28T23:06:37.701Z,5.78
2018-09-28T23:09:07.605Z,5.77
2018-09-28T23:11:36.096Z,6.20
2018-09-28T23:14:04.714Z,6.23
2018-09-28T23:16:33.380Z,6.27
2018-09-28T23:19:02.339Z,6.05
2018-09-28T23:21:30.895Z,6.47
2018-09-28T23:23:59.398Z,6.37
2018-09-28T23:26:27.886Z,5.07
2018-09-28T23:28:56.401Z,5.53
2018-09-28T23:31:25.005Z,6.10
2018-09-28T23:33:53.601Z,5.47
2018-09-28T23:36:22.101Z,5.70
2018-09-28T23:38:50.623Z,4.80
2018-09-28T23:41:19.095Z,5.37
2018-09-28T23:43:47.685Z,5.23
2018-09-28T23:46:16.454Z,5.10
2018-09-28T23:48:45.027Z,5.20
2018-09-28T23:51:13.557Z,5.40
2018-09-28T23:53:42.100Z,5.17
2018-09-28T23:56:10.704Z,5.00
2018-09-28T23:58:39.238Z,5.42
